Terminal Aerodrome Forecast
Issued by NWS New Orleans/Baton Rouge, LA

Home | Current Version | Previous Version | Text Only | Print | Product List | Glossary On
Versions: 1 2 3 4 5 6 7 8 9 10 11 12 13 14 15 16 17 18 19
000
FTUS44 KLIX 290521
TAFNEW
TAF
KNEW 290521Z 2906/3006 16008KT P6SM FEW060 SCT250
     FM290900 16006KT P6SM BKN015
     FM291400 15010KT P6SM BKN015
     FM291500 15011KT P6SM BKN040
     FM291800 15012KT P6SM SCT120=

USA.gov is the U.S. government's official web portal to all federal, state and local government web resources and services.